createdAt,value
2018-12-09T00:00:52.415Z,88.20
2018-12-09T00:03:22.781Z,87.90
2018-12-09T00:08:32.158Z,88.10
2018-12-09T00:11:02.105Z,87.30
2018-12-09T00:13:32.131Z,87.70
2018-12-09T00:16:02.544Z,87.90
2018-12-09T00:18:32.647Z,87.70
2018-12-09T00:21:02.469Z,86.80
2018-12-09T00:23:37.179Z,87.30
2018-12-09T00:26:09.859Z,86.80
2018-12-09T00:28:39.521Z,86.40
2018-12-09T00:31:10.220Z,85.60
2018-12-09T00:33:39.507Z,85.10
2018-12-09T00:36:10.156Z,84.10
2018-12-09T00:41:14.867Z,85.30
2018-12-09T00:43:43.102Z,86.40
2018-12-09T00:46:11.252Z,85.80
2018-12-09T00:48:39.666Z,85.30
2018-12-09T00:51:08.238Z,84.10
2018-12-09T00:53:36.508Z,85.10
2018-12-09T00:56:05.006Z,84.90
2018-12-09T00:58:33.298Z,83.60
2018-12-09T01:01:01.537Z,81.70
2018-12-09T01:03:29.751Z,81.90
2018-12-09T01:05:58.316Z,80.00
2018-12-09T01:08:26.555Z,78.00
2018-12-09T01:10:54.862Z,78.70
2018-12-09T01:13:23.291Z,78.60
2018-12-09T01:15:51.522Z,78.00
2018-12-09T01:18:19.782Z,77.80
2018-12-09T01:20:48.696Z,76.10
2018-12-09T01:23:17.058Z,75.20
2018-12-09T01:25:46.115Z,74.60
2018-12-09T01:28:15.640Z,74.10
2018-12-09T01:30:43.918Z,73.20
2018-12-09T01:33:12.374Z,72.60
2018-12-09T01:35:40.469Z,72.20
2018-12-09T01:38:08.974Z,71.50
2018-12-09T01:40:42.799Z,71.30
2018-12-09T01:43:11.318Z,70.70
2018-12-09T01:45:39.742Z,70.50
2018-12-09T01:48:08.009Z,71.70
2018-12-09T01:50:36.179Z,70.20
2018-12-09T01:54:13.445Z,70.40
2018-12-09T01:56:42.137Z,70.20
2018-12-09T01:59:10.454Z,69.80
2018-12-09T02:01:38.932Z,70.00
2018-12-09T02:04:07.693Z,69.20
2018-12-09T02:06:36.404Z,66.80
2018-12-09T02:09:08.736Z,67.40
2018-12-09T02:11:39.655Z,68.70
2018-12-09T02:14:09.420Z,66.30
2018-12-09T02:16:37.683Z,64.40
2018-12-09T02:19:15.715Z,64.60
2018-12-09T02:21:44.192Z,64.20
2018-12-09T02:24:12.546Z,64.80
2018-12-09T02:26:40.994Z,64.40
2018-12-09T02:29:09.491Z,65.30
2018-12-09T02:31:37.808Z,65.30
2018-12-09T02:34:07.201Z,62.20
2018-12-09T02:36:35.794Z,63.30
2018-12-09T02:39:06.432Z,65.90
2018-12-09T02:41:36.637Z,66.10
2018-12-09T02:44:05.142Z,67.00
2018-12-09T02:46:33.702Z,68.90
2018-12-09T02:49:02.032Z,68.90
2018-12-09T02:51:30.826Z,69.60
2018-12-09T02:53:59.056Z,70.50
2018-12-09T02:56:28.287Z,71.70
2018-12-09T02:58:56.511Z,72.40
2018-12-09T03:01:24.792Z,73.50
2018-12-09T03:03:53.085Z,74.80
2018-12-09T03:06:21.275Z,76.90
2018-12-09T03:08:49.402Z,78.40
2018-12-09T03:11:17.810Z,79.30
2018-12-09T03:13:45.971Z,82.10
2018-12-09T03:16:14.143Z,84.00
2018-12-09T03:18:44.585Z,85.60
2018-12-09T03:21:13.250Z,86.80
2018-12-09T03:23:41.856Z,87.70
2018-12-09T03:26:10.327Z,86.90
2018-12-09T03:28:38.509Z,86.90
2018-12-09T03:31:06.809Z,87.90
2018-12-09T03:33:35.395Z,87.70
2018-12-09T03:36:04.124Z,87.50
2018-12-09T03:38:32.325Z,87.10
2018-12-09T03:41:00.711Z,86.80
2018-12-09T03:43:29.314Z,87.30
2018-12-09T03:45:58.056Z,86.40
2018-12-09T03:48:26.270Z,84.90
2018-12-09T03:50:54.547Z,84.30
2018-12-09T03:53:22.900Z,82.30
2018-12-09T03:55:51.207Z,82.50
2018-12-09T03:58:19.479Z,80.40
2018-12-09T04:00:47.760Z,80.40
2018-12-09T04:03:16.322Z,78.70
2018-12-09T04:05:44.587Z,79.50
2018-12-09T04:08:12.782Z,79.10
2018-12-09T04:10:42.084Z,77.80
2018-12-09T04:13:10.556Z,77.40
2018-12-09T04:15:40.772Z,77.60
2018-12-09T04:18:11.420Z,77.40
2018-12-09T04:20:39.694Z,77.80
2018-12-09T04:23:07.971Z,77.40
2018-12-09T04:25:36.321Z,77.40
2018-12-09T04:28:04.511Z,77.60
2018-12-09T04:30:32.772Z,77.10
2018-12-09T04:33:01.042Z,77.10
2018-12-09T04:35:29.230Z,77.60
2018-12-09T04:37:57.553Z,77.60
2018-12-09T04:40:25.782Z,77.40
2018-12-09T04:42:54.072Z,77.60
2018-12-09T04:45:22.459Z,77.80
2018-12-09T04:47:51.367Z,78.00
2018-12-09T04:50:19.616Z,77.80
2018-12-09T04:52:48.209Z,77.80
2018-12-09T04:55:17.727Z,78.40
2018-12-09T04:57:46.292Z,78.70
2018-12-09T05:01:23.508Z,78.70
2018-12-09T05:03:51.756Z,79.30
2018-12-09T05:06:19.931Z,79.70
2018-12-09T05:08:48.420Z,79.50
2018-12-09T05:11:16.898Z,79.10
2018-12-09T05:13:45.094Z,78.20
2018-12-09T05:16:13.441Z,78.40
2018-12-09T05:18:41.839Z,77.80
2018-12-09T05:21:10.132Z,77.80
2018-12-09T05:23:38.495Z,78.70
2018-12-09T05:26:06.647Z,77.60
2018-12-09T05:28:35.367Z,76.90
2018-12-09T05:31:03.638Z,76.50
2018-12-09T05:33:32.129Z,78.40
2018-12-09T05:36:00.427Z,81.20
2018-12-09T05:38:28.694Z,81.40
2018-12-09T05:40:57.924Z,82.10
2018-12-09T05:43:26.335Z,82.70
2018-12-09T05:45:54.892Z,82.70
2018-12-09T05:48:23.217Z,83.00
2018-12-09T05:50:51.540Z,81.90
2018-12-09T05:53:19.857Z,80.20
2018-12-09T05:55:48.238Z,79.90
2018-12-09T05:58:16.531Z,79.30
2018-12-09T06:00:44.797Z,76.90
2018-12-09T06:03:13.059Z,75.40
2018-12-09T06:05:41.361Z,74.60
2018-12-09T06:08:09.589Z,73.70
2018-12-09T06:10:37.816Z,74.30
2018-12-09T06:13:06.350Z,73.90
2018-12-09T06:15:34.658Z,74.60
2018-12-09T06:18:03.195Z,74.50
2018-12-09T06:20:31.304Z,75.60
2018-12-09T06:22:59.692Z,76.10
2018-12-09T06:25:27.978Z,76.70
2018-12-09T06:27:56.267Z,77.30
2018-12-09T06:30:24.610Z,78.40
2018-12-09T06:32:52.914Z,78.20
2018-12-09T06:35:21.280Z,78.90
2018-12-09T06:37:49.691Z,79.70
2018-12-09T06:40:18.136Z,79.50
2018-12-09T06:42:46.405Z,79.50
2018-12-09T06:45:14.924Z,81.50
2018-12-09T06:47:43.265Z,81.90
2018-12-09T06:50:11.858Z,83.40
2018-12-09T06:52:40.649Z,84.30
2018-12-09T06:55:09.048Z,84.50
2018-12-09T06:57:37.329Z,83.60
2018-12-09T07:00:07.628Z,84.10
2018-12-09T07:02:36.668Z,83.40
2018-12-09T07:05:06.452Z,80.80
2018-12-09T07:07:34.749Z,79.30
2018-12-09T07:10:03.515Z,82.70
2018-12-09T07:12:33.296Z,83.00
2018-12-09T07:15:01.532Z,83.80
2018-12-09T07:17:31.210Z,83.60
2018-12-09T07:19:59.387Z,82.80
2018-12-09T07:22:27.674Z,82.80
2018-12-09T07:24:56.152Z,81.90
2018-12-09T07:27:24.720Z,79.10
2018-12-09T07:29:52.884Z,77.80
2018-12-09T07:32:21.337Z,76.70
2018-12-09T07:34:49.848Z,75.60
2018-12-09T07:37:18.243Z,74.80
2018-12-09T07:39:46.425Z,74.80
2018-12-09T07:42:14.794Z,74.30
2018-12-09T07:44:43.066Z,73.90
2018-12-09T07:47:11.478Z,75.80
2018-12-09T07:49:39.971Z,75.40
2018-12-09T07:52:10.163Z,76.50
2018-12-09T07:54:40.676Z,75.40
2018-12-09T07:57:09.377Z,75.60
2018-12-09T07:59:37.859Z,75.20
2018-12-09T08:02:06.124Z,75.40
2018-12-09T08:04:34.545Z,75.20
2018-12-09T08:07:03.100Z,74.10
2018-12-09T08:09:31.622Z,74.10
2018-12-09T08:12:02.224Z,74.30
2018-12-09T08:14:33.020Z,74.30
2018-12-09T08:17:02.364Z,74.50
2018-12-09T08:19:30.735Z,73.30
2018-12-09T08:21:59.010Z,73.00
2018-12-09T08:24:28.082Z,73.50
2018-12-09T08:26:56.485Z,73.30
2018-12-09T08:29:24.775Z,72.60
2018-12-09T08:31:53.021Z,72.80
2018-12-09T08:34:22.042Z,73.00
2018-12-09T08:36:50.195Z,73.30
2018-12-09T08:39:18.580Z,74.10
2018-12-09T08:41:48.632Z,74.80
2018-12-09T08:44:16.989Z,73.90
2018-12-09T08:46:46.114Z,74.10
2018-12-09T08:49:15.670Z,73.30
2018-12-09T08:51:43.949Z,73.50
2018-12-09T08:54:12.983Z,72.60
2018-12-09T08:56:41.350Z,72.40
2018-12-09T08:59:09.996Z,73.20
2018-12-09T09:01:38.396Z,74.60
2018-12-09T09:04:06.711Z,74.30
2018-12-09T09:06:36.025Z,74.30
2018-12-09T09:09:05.381Z,73.70
2018-12-09T09:11:36.126Z,73.30
2018-12-09T09:14:04.618Z,74.10
2018-12-09T09:16:32.988Z,74.50
2018-12-09T09:19:01.166Z,76.10
2018-12-09T09:21:29.305Z,77.30
2018-12-09T09:23:57.855Z,78.70
2018-12-09T09:26:26.272Z,80.60
2018-12-09T09:28:54.446Z,80.20
2018-12-09T09:31:22.862Z,81.20
2018-12-09T09:33:51.145Z,80.60
2018-12-09T09:36:19.472Z,80.20
2018-12-09T09:38:47.855Z,81.70
2018-12-09T09:41:16.125Z,81.40
2018-12-09T09:43:44.466Z,81.00
2018-12-09T09:46:13.092Z,81.70
2018-12-09T09:48:41.835Z,80.20
2018-12-09T09:51:10.268Z,80.20
2018-12-09T09:53:54.793Z,79.10
2018-12-09T09:56:23.171Z,79.30
2018-12-09T09:58:51.520Z,78.20
2018-12-09T10:01:19.699Z,77.30
2018-12-09T10:03:48.172Z,78.60
2018-12-09T10:06:16.673Z,78.40
2018-12-09T10:08:45.228Z,79.70
2018-12-09T10:11:13.747Z,78.90
2018-12-09T10:13:42.368Z,78.40
2018-12-09T10:16:10.748Z,78.00
2018-12-09T10:18:39.072Z,77.10
2018-12-09T10:21:07.474Z,78.40
2018-12-09T10:23:35.699Z,78.60
2018-12-09T10:26:03.871Z,80.20
2018-12-09T10:28:32.318Z,79.70
2018-12-09T10:31:01.445Z,79.70
2018-12-09T10:33:29.617Z,80.60
2018-12-09T10:35:58.915Z,79.50
2018-12-09T10:38:28.862Z,79.50
2018-12-09T10:40:57.127Z,79.70
2018-12-09T10:43:25.237Z,79.70
2018-12-09T10:45:53.648Z,79.90
2018-12-09T10:48:21.656Z,78.90
2018-12-09T10:50:49.978Z,80.20
2018-12-09T10:53:18.202Z,80.20
2018-12-09T10:55:46.214Z,81.20
2018-12-09T10:58:14.267Z,81.00
2018-12-09T11:00:48.020Z,81.00
2018-12-09T11:03:16.543Z,80.20
2018-12-09T11:05:45.108Z,81.00
2018-12-09T11:08:13.492Z,81.00
2018-12-09T11:10:42.288Z,80.20
2018-12-09T11:13:10.830Z,79.50
2018-12-09T11:15:39.430Z,78.90
2018-12-09T11:18:07.627Z,79.10
2018-12-09T11:20:36.940Z,79.30
2018-12-09T11:23:05.314Z,79.30
2018-12-09T11:25:34.219Z,79.30
2018-12-09T11:28:02.833Z,79.30
2018-12-09T11:30:31.068Z,79.70
2018-12-09T11:33:00.022Z,78.70
2018-12-09T11:35:28.949Z,78.60
2018-12-09T11:37:57.187Z,79.10
2018-12-09T11:40:25.775Z,79.10
2018-12-09T11:42:54.066Z,79.50
2018-12-09T11:45:22.609Z,79.90
2018-12-09T11:47:51.419Z,79.70
2018-12-09T11:50:20.128Z,79.50
2018-12-09T11:52:48.407Z,78.20
2018-12-09T11:55:16.683Z,78.90
2018-12-09T11:57:50.057Z,78.90
2018-12-09T12:00:24.829Z,79.10
2018-12-09T12:02:55.240Z,79.10
2018-12-09T12:05:40.080Z,78.40
2018-12-09T12:08:08.624Z,78.60
2018-12-09T12:10:37.100Z,78.60
2018-12-09T12:13:05.556Z,79.10
2018-12-09T12:15:34.110Z,78.70
2018-12-09T12:24:20.925Z,79.50
2018-12-09T12:26:50.939Z,79.70
2018-12-09T12:29:21.173Z,79.50
2018-12-09T12:31:51.006Z,79.70
2018-12-09T12:34:20.851Z,78.60
2018-12-09T12:36:52.287Z,79.10
2018-12-09T12:39:22.400Z,78.90
2018-12-09T12:41:51.349Z,78.90
2018-12-09T12:44:19.800Z,78.70
2018-12-09T12:46:49.532Z,78.40
2018-12-09T12:49:18.694Z,78.20
2018-12-09T12:51:49.055Z,78.70
2018-12-09T12:54:19.674Z,77.60
2018-12-09T12:56:48.301Z,77.40
2018-12-09T12:59:16.696Z,77.60
2018-12-09T13:01:45.199Z,77.30
2018-12-09T13:04:13.759Z,77.40
2018-12-09T13:06:42.581Z,78.00
2018-12-09T13:09:10.883Z,78.20
2018-12-09T13:11:39.364Z,79.30
2018-12-09T13:14:08.075Z,80.00
2018-12-09T13:16:36.516Z,79.50
2018-12-09T13:19:05.135Z,77.80
2018-12-09T13:21:33.719Z,78.70
2018-12-09T13:24:02.070Z,79.50
2018-12-09T13:26:30.541Z,80.20
2018-12-09T13:28:59.761Z,79.70
2018-12-09T13:31:30.348Z,79.50
2018-12-09T13:34:02.277Z,80.60
2018-12-09T13:36:37.515Z,81.70
2018-12-09T13:39:09.483Z,82.30
2018-12-09T13:41:44.138Z,81.00
2018-12-09T13:44:15.367Z,80.40
2018-12-09T13:46:44.739Z,80.20
2018-12-09T13:49:13.446Z,80.80
2018-12-09T13:51:42.083Z,79.70
2018-12-09T13:54:10.798Z,80.60
2018-12-09T13:56:39.228Z,81.50
2018-12-09T13:59:08.193Z,82.30
2018-12-09T14:01:36.623Z,82.70
2018-12-09T14:04:04.846Z,82.50
2018-12-09T14:06:33.292Z,84.10
2018-12-09T14:09:01.911Z,85.10
2018-12-09T14:11:32.446Z,86.20
2018-12-09T14:14:00.699Z,85.80
2018-12-09T14:16:29.054Z,85.60
2018-12-09T14:18:57.840Z,86.80
2018-12-09T14:21:26.452Z,87.10
2018-12-09T14:23:54.920Z,87.90
2018-12-09T14:26:23.811Z,87.30
2018-12-09T14:28:54.280Z,86.80
2018-12-09T14:31:22.807Z,87.90
2018-12-09T14:33:51.130Z,88.40
2018-12-09T14:36:19.647Z,88.80
2018-12-09T14:38:48.152Z,89.20
2018-12-09T14:41:16.628Z,88.80
2018-12-09T14:43:45.013Z,89.40
2018-12-09T14:46:13.496Z,88.40
2018-12-09T14:48:42.100Z,89.40
2018-12-09T14:51:10.695Z,89.40
2018-12-09T14:53:39.290Z,89.60
2018-12-09T14:56:07.515Z,90.10
2018-12-09T14:58:36.517Z,90.30
2018-12-09T15:01:04.909Z,90.30
2018-12-09T15:03:33.608Z,90.40
2018-12-09T15:06:01.991Z,90.30
2018-12-09T15:08:30.879Z,89.70
2018-12-09T15:10:59.243Z,90.20
2018-12-09T15:13:27.779Z,90.10
2018-12-09T15:15:57.110Z,90.20
2018-12-09T15:18:25.737Z,90.20
2018-12-09T15:20:54.069Z,90.10
2018-12-09T15:23:23.353Z,90.10
2018-12-09T15:25:51.591Z,90.20
2018-12-09T15:28:20.404Z,89.20
2018-12-09T15:30:49.118Z,89.40
2018-12-09T15:33:17.932Z,90.10
2018-12-09T15:35:46.405Z,89.00
2018-12-09T15:38:15.020Z,89.40
2018-12-09T15:40:43.655Z,89.00
2018-12-09T15:43:11.952Z,89.20
2018-12-09T15:45:41.003Z,89.00
2018-12-09T15:48:09.766Z,88.40
2018-12-09T15:50:40.706Z,89.20
2018-12-09T15:53:09.438Z,88.40
2018-12-09T15:55:38.479Z,88.80
2018-12-09T15:58:08.236Z,88.10
2018-12-09T16:00:41.146Z,88.20
2018-12-09T16:03:09.688Z,88.60
2018-12-09T16:05:38.036Z,88.10
2018-12-09T16:08:07.030Z,87.70
2018-12-09T16:10:35.271Z,87.90
2018-12-09T16:13:03.711Z,88.80
2018-12-09T16:15:32.139Z,88.10
2018-12-09T16:18:00.527Z,89.60
2018-12-09T16:20:29.017Z,89.40
2018-12-09T16:22:57.406Z,90.10
2018-12-09T16:25:26.419Z,90.50
2018-12-09T16:27:54.887Z,91.00
2018-12-09T16:30:25.966Z,91.00
2018-12-09T16:32:55.242Z,91.30
2018-12-09T16:35:24.261Z,91.20
2018-12-09T16:37:52.933Z,91.30
2018-12-09T16:40:21.944Z,91.40
2018-12-09T16:42:53.136Z,91.40
2018-12-09T16:45:23.926Z,91.20
2018-12-09T16:47:52.716Z,91.20
2018-12-09T16:50:20.909Z,91.30
2018-12-09T16:52:49.035Z,91.20
2018-12-09T16:55:17.179Z,91.20
2018-12-09T16:57:45.714Z,91.30
2018-12-09T17:00:14.263Z,91.20
2018-12-09T17:02:43.290Z,91.00
2018-12-09T17:05:11.598Z,91.10
2018-12-09T17:07:42.299Z,90.80
2018-12-09T17:10:10.085Z,90.80
2018-12-09T17:12:39.114Z,90.40
2018-12-09T17:15:07.950Z,90.30
2018-12-09T17:17:36.307Z,90.50
2018-12-09T17:20:06.370Z,90.40
2018-12-09T17:22:35.099Z,90.50
2018-12-09T17:25:03.778Z,90.40
2018-12-09T17:27:32.001Z,90.50
2018-12-09T17:30:00.676Z,90.40
2018-12-09T17:32:29.211Z,90.20
2018-12-09T17:34:57.913Z,90.90
2018-12-09T17:37:26.556Z,90.90
2018-12-09T17:39:55.376Z,90.70
2018-12-09T17:42:23.831Z,90.70
2018-12-09T17:44:52.141Z,90.30
2018-12-09T17:47:20.915Z,89.70
2018-12-09T17:49:49.127Z,89.40
2018-12-09T17:52:17.836Z,89.60
2018-12-09T17:54:46.784Z,88.60
2018-12-09T17:57:15.632Z,88.10
2018-12-09T17:59:44.148Z,88.80
2018-12-09T18:02:12.456Z,89.60
2018-12-09T18:04:41.085Z,89.60
2018-12-09T18:07:11.477Z,90.10
2018-12-09T18:09:39.815Z,90.30
2018-12-09T18:12:08.599Z,90.60
2018-12-09T18:14:37.306Z,90.40
2018-12-09T18:17:05.727Z,90.40
2018-12-09T18:19:33.948Z,90.40
2018-12-09T18:22:02.300Z,90.70
2018-12-09T18:24:30.923Z,90.70
2018-12-09T18:26:59.159Z,90.60
2018-12-09T18:29:27.983Z,90.50
2018-12-09T18:31:56.649Z,90.10
2018-12-09T18:34:25.512Z,89.90
2018-12-09T18:36:53.857Z,89.40
2018-12-09T18:39:22.676Z,89.60
2018-12-09T18:41:53.967Z,89.00
2018-12-09T18:44:26.812Z,89.20
2018-12-09T18:46:55.388Z,89.00
2018-12-09T18:49:23.869Z,89.00
2018-12-09T18:51:52.186Z,89.20
2018-12-09T18:54:20.466Z,88.60
2018-12-09T18:56:48.748Z,88.40
2018-12-09T18:59:17.106Z,87.90
2018-12-09T19:01:45.396Z,87.50
2018-12-09T19:04:13.775Z,87.90
2018-12-09T19:06:42.085Z,87.30
2018-12-09T19:09:10.633Z,87.50
2018-12-09T19:11:38.914Z,88.10
2018-12-09T19:14:07.311Z,87.70
2018-12-09T19:16:35.868Z,87.30
2018-12-09T19:19:04.251Z,87.30
2018-12-09T19:21:32.682Z,87.90
2018-12-09T19:24:01.212Z,88.10
2018-12-09T19:26:30.397Z,88.10
2018-12-09T19:28:58.814Z,88.10
2018-12-09T19:31:27.380Z,87.30
2018-12-09T19:33:55.873Z,87.70
2018-12-09T19:36:24.442Z,87.30
2018-12-09T19:38:52.933Z,87.90
2018-12-09T19:41:21.305Z,87.90
2018-12-09T19:43:49.757Z,88.10
2018-12-09T19:46:18.391Z,88.20
2018-12-09T19:48:47.020Z,88.40
2018-12-09T19:51:15.544Z,88.60
2018-12-09T19:53:43.800Z,88.60
2018-12-09T19:56:12.319Z,88.60
2018-12-09T19:58:40.674Z,88.80
2018-12-09T20:01:09.042Z,89.20
2018-12-09T20:03:41.010Z,89.40
2018-12-09T20:06:09.293Z,89.40
2018-12-09T20:08:37.678Z,89.60
2018-12-09T20:11:06.274Z,89.40
2018-12-09T20:13:35.722Z,89.70
2018-12-09T20:16:04.544Z,89.20
2018-12-09T20:18:32.924Z,89.60
2018-12-09T20:21:01.469Z,89.90
2018-12-09T20:23:29.995Z,89.90
2018-12-09T20:25:58.260Z,90.10
2018-12-09T20:28:26.450Z,89.90
2018-12-09T20:30:54.947Z,90.20
2018-12-09T20:33:23.320Z,89.70
2018-12-09T20:35:51.900Z,89.20
2018-12-09T20:38:20.273Z,89.00
2018-12-09T20:40:48.681Z,88.80
2018-12-09T20:43:16.944Z,89.40
2018-12-09T20:45:45.423Z,89.60
2018-12-09T20:48:14.670Z,89.90
2018-12-09T20:50:43.083Z,90.10
2018-12-09T20:53:11.500Z,90.30
2018-12-09T20:55:39.760Z,90.20
2018-12-09T20:58:08.139Z,89.70
2018-12-09T21:00:36.544Z,89.20
2018-12-09T21:03:05.283Z,88.40
2018-12-09T21:05:33.455Z,89.00
2018-12-09T21:08:02.006Z,88.80
2018-12-09T21:10:30.421Z,88.80
2018-12-09T21:13:00.282Z,89.20
2018-12-09T21:15:30.971Z,88.80
2018-12-09T21:18:00.479Z,88.60
2018-12-09T21:20:28.772Z,89.20
2018-12-09T21:22:57.313Z,89.60
2018-12-09T21:25:25.629Z,90.10
2018-12-09T21:27:53.984Z,89.40
2018-12-09T21:30:22.610Z,88.80
2018-12-09T21:32:50.985Z,88.60
2018-12-09T21:35:19.272Z,89.20
2018-12-09T21:37:47.602Z,89.20
2018-12-09T21:40:16.273Z,88.10
2018-12-09T21:42:44.675Z,88.20
2018-12-09T21:45:13.220Z,88.20
2018-12-09T21:47:41.952Z,88.10
2018-12-09T21:50:10.854Z,86.80
2018-12-09T21:52:39.222Z,86.80
2018-12-09T21:55:07.726Z,87.10
2018-12-09T21:57:36.198Z,87.10
2018-12-09T22:00:06.814Z,86.90
2018-12-09T22:02:37.152Z,87.10
2018-12-09T22:05:05.831Z,87.70
2018-12-09T22:07:34.186Z,86.80
2018-12-09T22:10:02.785Z,87.50
2018-12-09T22:12:31.894Z,87.30
2018-12-09T22:15:00.063Z,87.90
2018-12-09T22:17:28.441Z,88.20
2018-12-09T22:19:56.804Z,88.40
2018-12-09T22:22:25.186Z,88.60
2018-12-09T22:24:53.472Z,88.40
2018-12-09T22:27:21.770Z,88.20
2018-12-09T22:29:50.220Z,88.60
2018-12-09T22:32:19.002Z,89.60
2018-12-09T22:34:47.866Z,89.90
2018-12-09T22:37:16.109Z,90.10
2018-12-09T22:39:44.620Z,89.70
2018-12-09T22:42:14.895Z,89.20
2018-12-09T22:44:43.361Z,89.70
2018-12-09T22:47:11.953Z,89.40
2018-12-09T22:49:40.238Z,89.20
2018-12-09T22:52:08.524Z,88.60
2018-12-09T22:54:36.773Z,88.60
2018-12-09T22:57:05.718Z,89.20
2018-12-09T22:59:34.028Z,88.20
2018-12-09T23:02:07.752Z,88.20
2018-12-09T23:04:36.141Z,88.80
2018-12-09T23:07:09.959Z,88.80
2018-12-09T23:09:38.257Z,87.70
2018-12-09T23:12:06.479Z,87.50
2018-12-09T23:14:34.877Z,87.90
2018-12-09T23:17:03.658Z,87.70
2018-12-09T23:19:31.937Z,88.10
2018-12-09T23:22:00.100Z,87.70
2018-12-09T23:24:28.274Z,87.90
2018-12-09T23:26:57.795Z,87.50
2018-12-09T23:29:26.049Z,87.90
2018-12-09T23:31:55.151Z,88.10
2018-12-09T23:34:25.483Z,87.50
2018-12-09T23:36:53.666Z,87.90
2018-12-09T23:39:21.995Z,88.20
2018-12-09T23:41:50.513Z,87.70
2018-12-09T23:44:18.788Z,87.30
2018-12-09T23:46:47.174Z,87.90
2018-12-09T23:49:16.356Z,88.10
2018-12-09T23:51:44.599Z,88.20
2018-12-09T23:54:12.813Z,88.20
2018-12-09T23:56:41.239Z,87.90
2018-12-09T23:59:09.468Z,88.10
